Time;durP1;ratioP1;P1;durP2;ratioP2;P2;SDS_P1;SDS_P2;PMS_P1;PMS_P2;Temp;Humidity;BMP_temperature;BMP_pressure;BME280_temperature;BME280_humidity;BME280_pressure;Samples;Min_cycle;Max_cycle;Signal;HPM_P1;HPM_P2
2022/07/30 00:00:27;;;;;;;;;;;;;;;19.35;91.60;98656.75;5030423;27;104117;-77
2022/07/30 00:02:54;;;;;;;;;;;;;;;19.39;91.07;98652.78;5027734;27;103919;-77
2022/07/30 00:05:23;;;;;;;;;;;;;;;19.34;90.90;98655.13;5037345;27;102879;-77
2022/07/30 00:07:53;;;;;;;;;;;;;;;19.29;91.86;98657.44;5027806;27;102924;-77
2022/07/30 00:10:22;;;;;;;;;;;;;;;19.21;91.94;98649.38;5027043;27;103663;-76
2022/07/30 00:12:51;;;;;;;;;;;;;;;19.29;90.26;98652.06;5037761;27;103195;-77
2022/07/30 00:15:20;;;;;;;;;;;;;;;19.32;89.39;98652.59;5030453;27;103047;-77
2022/07/30 00:17:48;;;;;;;;;;;;;;;19.20;90.15;98653.09;5033587;27;102881;-77
2022/07/30 00:20:17;;;;;;;;;;;;;;;19.18;90.19;98661.28;5031716;27;104832;-76
2022/07/30 00:22:49;;;;;;;;;;;;;;;19.30;88.69;98664.47;5038018;27;102914;-76
2022/07/30 00:25:17;;;;;;;;;;;;;;;19.36;87.32;98663.81;5038110;27;102951;-77
2022/07/30 00:27:47;;;;;;;;;;;;;;;19.38;86.38;98670.72;5033963;27;102951;-77
2022/07/30 00:30:15;;;;;;;;;;;;;;;19.39;85.70;98675.06;5039781;27;103652;-77
2022/07/30 00:32:43;;;;;;;;;;;;;;;19.39;85.30;98674.22;5029354;27;103170;-77
2022/07/30 00:35:10;;;;;;;;;;;;;;;19.35;85.96;98672.84;5040697;27;102665;-77
2022/07/30 00:37:38;;;;;;;;;;;;;;;19.32;85.41;98673.16;5042974;27;102885;-77
2022/07/30 00:40:09;;;;;;;;;;;;;;;19.35;85.21;98673.69;5046285;27;103888;-75
2022/07/30 00:42:37;;;;;;;;;;;;;;;19.32;83.20;98678.53;5034136;27;103185;-76
2022/07/30 00:45:06;;;;;;;;;;;;;;;19.26;82.24;98679.19;5035060;27;102638;-77
2022/07/30 00:47:34;;;;;;;;;;;;;;;19.11;82.74;98679.84;5036328;27;104158;-77
2022/07/30 00:50:03;;;;;;;;;;;;;;;19.21;81.30;98676.16;5052681;27;103143;-77
2022/07/30 00:52:39;;;;;;;;;;;;;;;19.19;80.92;98678.19;5044272;27;102588;-77
2022/07/30 00:55:10;;;;;;;;;;;;;;;19.22;79.94;98677.84;5040700;27;102886;-77
2022/07/30 00:57:38;;;;;;;;;;;;;;;19.15;80.01;98671.47;5039687;27;104046;-77
2022/07/30 01:00:09;;;;;;;;;;;;;;;19.27;79.82;98678.19;5032907;27;103807;-75
2022/07/30 01:02:37;;;;;;;;;;;;;;;19.32;79.67;98673.16;5033586;27;103577;-76
2022/07/30 01:05:05;;;;;;;;;;;;;;;19.37;78.80;98676.22;5034588;27;102788;-77
2022/07/30 01:07:34;;;;;;;;;;;;;;;19.40;79.67;98676.72;5032758;27;102983;-77
2022/07/30 01:10:02;;;;;;;;;;;;;;;19.32;79.46;98683.88;5033348;27;103250;-77
2022/07/30 01:12:31;;;;;;;;;;;;;;;19.36;78.69;98680.72;5034324;27;103087;-76
2022/07/30 01:15:03;;;;;;;;;;;;;;;19.41;78.61;98682.94;5041416;27;103050;-77
2022/07/30 01:17:31;;;;;;;;;;;;;;;19.44;78.75;98679.91;5031279;27;103481;-77
2022/07/30 01:20:01;;;;;;;;;;;;;;;19.43;79.04;98678.22;5032273;27;102900;-77
2022/07/30 01:22:55;;;;;;;;;;;;;;;19.41;78.93;98675.72;5034203;27;103134;-77
2022/07/30 01:25:28;;;;;;;;;;;;;;;19.31;79.96;98682.22;5018018;27;102937;-77
2022/07/30 01:28:00;;;;;;;;;;;;;;;19.18;80.85;98676.50;5039140;27;102671;-77
2022/07/30 01:30:29;;;;;;;;;;;;;;;19.07;80.94;98681.19;5033861;27;103143;-77
2022/07/30 01:32:58;;;;;;;;;;;;;;;19.03;81.27;98687.03;5033118;27;104216;-77
2022/07/30 01:35:27;;;;;;;;;;;;;;;19.04;80.88;98692.22;5037134;27;103065;-77
2022/07/30 01:37:56;;;;;;;;;;;;;;;19.04;80.40;98692.22;5035790;27;103104;-77
2022/07/30 01:40:25;;;;;;;;;;;;;;;18.94;80.77;98694.22;5029418;27;104004;-77
2022/07/30 01:42:53;;;;;;;;;;;;;;;18.99;80.36;98691.88;5032449;27;103086;-77
2022/07/30 01:45:23;;;;;;;;;;;;;;;18.96;80.73;98694.88;5033985;27;103672;-77
2022/07/30 01:47:52;;;;;;;;;;;;;;;18.85;81.03;98699.69;5029609;27;103034;-77
2022/07/30 01:50:21;;;;;;;;;;;;;;;18.80;80.76;98700.19;5035664;27;103003;-77
2022/07/30 01:52:51;;;;;;;;;;;;;;;18.80;81.01;98694.00;5028214;27;103730;-76
2022/07/30 01:55:21;;;;;;;;;;;;;;;18.75;81.00;98702.50;5033560;27;102907;-76
2022/07/30 01:57:50;;;;;;;;;;;;;;;18.74;81.00;98697.31;5033533;27;102801;-78
2022/07/30 02:00:18;;;;;;;;;;;;;;;18.70;80.89;98704.81;5032602;27;105672;-79
2022/07/30 02:02:51;;;;;;;;;;;;;;;18.67;81.28;98699.78;5034731;27;103064;-76
2022/07/30 02:05:19;;;;;;;;;;;;;;;18.64;81.36;98704.66;5031971;27;103081;-77
2022/07/30 02:07:55;;;;;;;;;;;;;;;18.58;82.26;98702.63;5024502;27;103167;-76
2022/07/30 02:10:28;;;;;;;;;;;;;;;18.57;82.23;98704.44;5035268;27;103174;-76
2022/07/30 02:13:01;;;;;;;;;;;;;;;18.52;81.91;98691.56;5034625;27;103126;-77
2022/07/30 02:15:33;;;;;;;;;;;;;;;18.38;82.07;98691.31;5030071;27;102513;-77
2022/07/30 02:18:07;;;;;;;;;;;;;;;18.38;82.23;98694.81;5030616;27;102741;-77
2022/07/30 02:21:14;;;;;;;;;;;;;;;18.38;81.89;98688.63;5033723;27;103798;-77
2022/07/30 02:23:45;;;;;;;;;;;;;;;18.32;81.73;98690.09;5040460;27;103136;-77
2022/07/30 02:26:14;;;;;;;;;;;;;;;18.30;82.38;98692.06;5030084;27;102686;-76
2022/07/30 02:28:44;;;;;;;;;;;;;;;18.33;82.18;98686.41;5031939;27;103214;-76
2022/07/30 02:31:13;;;;;;;;;;;;;;;18.32;82.19;98684.75;5067490;27;103400;-76
2022/07/30 02:33:49;;;;;;;;;;;;;;;18.29;81.96;98689.56;5039935;27;102568;-77
2022/07/30 02:36:18;;;;;;;;;;;;;;;18.29;81.68;98690.41;5045550;27;102559;-78
2022/07/30 02:38:49;;;;;;;;;;;;;;;18.25;82.06;98699.75;5029605;27;104422;-76
2022/07/30 02:41:20;;;;;;;;;;;;;;;18.20;82.45;98701.22;5027291;27;103934;-76
2022/07/30 02:43:51;;;;;;;;;;;;;;;18.17;82.53;98706.88;5033352;27;104001;-78
2022/07/30 02:46:21;;;;;;;;;;;;;;;18.20;82.05;98706.56;5032983;27;103564;-76
2022/07/30 02:49:29;;;;;;;;;;;;;;;18.19;81.81;98711.06;4969931;28;104126;-79
2022/07/30 02:52:00;;;;;;;;;;;;;;;18.19;81.70;98721.75;4974106;28;104171;-76
2022/07/30 02:54:30;;;;;;;;;;;;;;;18.10;82.61;98717.38;4992714;27;105561;-77
2022/07/30 02:57:00;;;;;;;;;;;;;;;18.00;82.28;98727.31;5034438;27;102999;-79
2022/07/30 02:59:30;;;;;;;;;;;;;;;18.01;83.38;98718.31;5033583;27;102962;-78
2022/07/30 03:01:59;;;;;;;;;;;;;;;18.01;82.79;98728.16;5029591;27;103476;-78
2022/07/30 03:04:31;;;;;;;;;;;;;;;17.93;82.75;98732.47;5035182;27;103121;-76
2022/07/30 03:06:59;;;;;;;;;;;;;;;17.82;83.45;98731.88;5043248;27;103049;-76
2022/07/30 03:09:35;;;;;;;;;;;;;;;17.84;83.05;98733.41;5026703;27;102817;-76
2022/07/30 03:12:19;;;;;;;;;;;;;;;17.90;82.12;98732.78;5034503;27;103527;-77
2022/07/30 03:14:46;;;;;;;;;;;;;;;17.82;82.36;98732.69;5031672;27;103785;-77
2022/07/30 03:17:16;;;;;;;;;;;;;;;17.80;81.95;98733.84;5036251;27;102580;-77
2022/07/30 03:19:47;;;;;;;;;;;;;;;17.77;81.90;98737.69;5030395;27;103117;-77
2022/07/30 03:22:17;;;;;;;;;;;;;;;17.75;81.91;98738.84;5032837;27;103995;-77
2022/07/30 03:24:47;;;;;;;;;;;;;;;17.79;81.04;98745.56;5031804;27;103444;-77
2022/07/30 03:27:16;;;;;;;;;;;;;;;17.77;81.48;98742.19;5030871;27;103865;-77
2022/07/30 03:29:47;;;;;;;;;;;;;;;17.73;81.01;98744.34;5040109;27;103123;-77
2022/07/30 03:32:15;;;;;;;;;;;;;;;17.69;81.73;98745.63;5031478;27;103491;-77
2022/07/30 03:34:47;;;;;;;;;;;;;;;17.62;81.87;98749.09;5031401;27;105941;-77
2022/07/30 03:37:15;;;;;;;;;;;;;;;17.46;82.48;98749.72;5031643;27;103106;-78
2022/07/30 03:39:43;;;;;;;;;;;;;;;17.35;83.00;98748.13;5026731;27;102722;-78
2022/07/30 03:42:11;;;;;;;;;;;;;;;17.26;83.51;98751.69;5038370;27;104328;-77
2022/07/30 03:44:40;;;;;;;;;;;;;;;17.30;82.94;98760.25;5028345;27;103049;-78
2022/07/30 03:47:08;;;;;;;;;;;;;;;17.33;82.75;98766.16;5033683;27;103144;-77
2022/07/30 03:49:43;;;;;;;;;;;;;;;17.34;82.27;98761.66;5031816;27;103032;-78
2022/07/30 03:52:14;;;;;;;;;;;;;;;17.19;82.29;98768.50;5032966;27;104971;-78
2022/07/30 03:54:42;;;;;;;;;;;;;;;17.17;82.92;98765.97;5029848;27;103071;-78
2022/07/30 03:57:39;;;;;;;;;;;;;;;17.22;81.74;98773.53;5037915;27;102874;-78
2022/07/30 04:00:12;;;;;;;;;;;;;;;17.25;81.50;98765.22;5043307;27;103914;-77
2022/07/30 04:02:40;;;;;;;;;;;;;;;17.20;81.41;98770.19;5038282;27;102918;-78
2022/07/30 04:05:26;;;;;;;;;;;;;;;17.19;81.36;98774.66;5032691;27;103430;-78
2022/07/30 04:08:08;;;;;;;;;;;;;;;17.11;82.02;98776.41;5030502;27;103082;-76
2022/07/30 04:10:37;;;;;;;;;;;;;;;17.15;81.00;98772.47;5039451;27;102723;-77
2022/07/30 04:13:23;;;;;;;;;;;;;;;17.03;82.25;98779.84;5053833;27;103123;-77
2022/07/30 04:15:56;;;;;;;;;;;;;;;17.10;81.76;98785.41;5033783;27;104920;-76
2022/07/30 04:18:48;;;;;;;;;;;;;;;17.06;82.99;98789.38;5028308;27;103014;-75
2022/07/30 04:21:18;;;;;;;;;;;;;;;17.10;81.90;98785.41;5044436;27;104070;-77
2022/07/30 04:23:49;;;;;;;;;;;;;;;17.14;81.45;98794.78;5036186;27;103859;-76
2022/07/30 04:26:35;;;;;;;;;;;;;;;17.19;81.27;98800.53;5032339;27;103181;-76
2022/07/30 04:29:06;;;;;;;;;;;;;;;17.20;81.84;98797.72;5040524;27;103963;-76
2022/07/30 04:31:34;;;;;;;;;;;;;;;17.26;81.84;98809.63;5036391;27;103190;-78
2022/07/30 04:34:33;;;;;;;;;;;;;;;17.28;81.96;98807.63;5033458;27;103106;-77
2022/07/30 04:37:03;;;;;;;;;;;;;;;17.34;80.75;98809.72;5033492;27;103110;-74
2022/07/30 04:39:33;;;;;;;;;;;;;;;17.39;81.01;98802.94;5039108;27;102830;-74
2022/07/30 04:42:00;;;;;;;;;;;;;;;17.47;79.88;98810.16;5052627;27;102776;-73
2022/07/30 04:44:35;;;;;;;;;;;;;;;17.50;80.60;98809.88;5046844;27;103388;-75
2022/07/30 04:47:25;;;;;;;;;;;;;;;17.56;81.08;98813.81;5037556;27;103037;-75
2022/07/30 04:50:20;;;;;;;;;;;;;;;17.60;81.17;98810.66;5024839;27;102684;-75
2022/07/30 04:52:48;;;;;;;;;;;;;;;17.62;80.67;98814.03;5031300;27;103870;-75
2022/07/30 04:55:24;;;;;;;;;;;;;;;17.70;80.92;98819.47;5027346;27;102793;-76
2022/07/30 04:57:52;;;;;;;;;;;;;;;17.76;80.35;98816.19;5042061;27;103992;-79
2022/07/30 05:00:20;;;;;;;;;;;;;;;17.82;80.17;98810.19;5031208;27;102536;-79
2022/07/30 05:02:51;;;;;;;;;;;;;;;17.88;80.14;98822.94;5041245;27;102997;-78
2022/07/30 05:05:20;;;;;;;;;;;;;;;17.95;79.61;98824.03;5034705;27;104159;-77
2022/07/30 05:07:48;;;;;;;;;;;;;;;18.03;79.14;98823.25;5029272;27;103244;-77
2022/07/30 05:10:17;;;;;;;;;;;;;;;18.09;78.59;98827.13;5017234;27;102819;-79
2022/07/30 05:12:49;;;;;;;;;;;;;;;18.20;77.79;98826.88;5032746;27;103280;-75
2022/07/30 05:15:20;;;;;;;;;;;;;;;18.28;77.85;98833.13;5034565;27;104899;-78
2022/07/30 05:17:48;;;;;;;;;;;;;;;18.33;77.57;98830.81;5033594;27;104637;-76
2022/07/30 05:20:16;;;;;;;;;;;;;;;18.44;76.92;98832.44;5039292;27;102804;-78
2022/07/30 05:23:10;;;;;;;;;;;;;;;18.56;77.17;98828.50;5031639;27;103932;-75
2022/07/30 05:25:40;;;;;;;;;;;;;;;18.58;77.20;98834.56;5032819;27;103128;-73
2022/07/30 05:28:16;;;;;;;;;;;;;;;18.66;75.97;98837.28;5038084;27;105694;-72
2022/07/30 05:30:47;;;;;;;;;;;;;;;18.75;75.80;98833.63;5039676;27;103288;-74
2022/07/30 05:33:18;;;;;;;;;;;;;;;18.84;75.79;98830.00;5030382;27;104343;-76
2022/07/30 05:35:48;;;;;;;;;;;;;;;18.84;76.14;98835.34;5030534;27;104217;-73
2022/07/30 05:38:15;;;;;;;;;;;;;;;18.94;75.73;98830.75;5032482;27;105612;-76
2022/07/30 05:41:03;;;;;;;;;;;;;;;19.06;75.01;98839.31;5023424;27;103109;-75
2022/07/30 05:44:02;;;;;;;;;;;;;;;19.21;74.10;98831.50;5045674;27;103552;-76
2022/07/30 05:46:30;;;;;;;;;;;;;;;19.29;73.37;98831.53;5044981;27;103907;-75
2022/07/30 05:48:59;;;;;;;;;;;;;;;19.39;73.18;98824.25;5028931;27;103330;-75
2022/07/30 05:51:28;;;;;;;;;;;;;;;19.48;72.20;98825.94;5033668;27;102994;-75
2022/07/30 05:53:55;;;;;;;;;;;;;;;19.57;72.08;98833.81;5033762;27;102910;-74
2022/07/30 05:56:39;;;;;;;;;;;;;;;19.71;71.97;98837.69;5031314;27;103167;-75
2022/07/30 05:59:15;;;;;;;;;;;;;;;19.75;71.84;98836.38;5035460;27;104110;-75
2022/07/30 06:02:01;;;;;;;;;;;;;;;19.86;71.12;98836.06;5039046;27;102552;-75
2022/07/30 06:04:48;;;;;;;;;;;;;;;19.95;71.11;98840.44;5030090;27;103558;-76
2022/07/30 06:07:17;;;;;;;;;;;;;;;20.06;68.59;98834.72;5032599;27;104160;-74
2022/07/30 06:09:44;;;;;;;;;;;;;;;20.28;68.46;98843.97;5034157;27;103231;-76
2022/07/30 06:12:13;;;;;;;;;;;;;;;20.43;68.07;98846.81;5035576;27;102940;-76
2022/07/30 06:14:42;;;;;;;;;;;;;;;20.49;67.17;98844.28;5031665;27;102701;-75
2022/07/30 06:17:15;;;;;;;;;;;;;;;20.59;66.37;98854.84;5031204;27;103170;-74
2022/07/30 06:20:03;;;;;;;;;;;;;;;20.75;64.49;98847.59;5030232;27;103522;-75
2022/07/30 06:22:40;;;;;;;;;;;;;;;20.87;64.98;98850.75;5030140;27;102710;-75
2022/07/30 06:25:14;;;;;;;;;;;;;;;20.99;64.53;98849.38;5031797;27;104151;-75
2022/07/30 06:27:45;;;;;;;;;;;;;;;21.17;64.14;98852.69;5029474;27;103424;-75
2022/07/30 06:30:15;;;;;;;;;;;;;;;21.26;63.24;98857.03;5029684;27;103984;-74
2022/07/30 06:32:44;;;;;;;;;;;;;;;21.34;62.59;98848.06;5034037;27;103027;-77
2022/07/30 06:35:16;;;;;;;;;;;;;;;21.31;62.08;98860.00;5027658;27;104432;-75
2022/07/30 06:37:44;;;;;;;;;;;;;;;21.50;61.92;98852.56;5035343;27;103570;-74
2022/07/30 06:40:38;;;;;;;;;;;;;;;21.50;60.23;98856.03;5037406;27;103292;-74
2022/07/30 06:43:29;;;;;;;;;;;;;;;21.67;60.42;98851.44;5026891;27;103890;-77
2022/07/30 06:46:17;;;;;;;;;;;;;;;21.84;59.80;98855.69;5052436;27;103130;-76
2022/07/30 06:48:48;;;;;;;;;;;;;;;21.85;58.62;98855.53;5029098;27;102951;-72
2022/07/30 06:51:16;;;;;;;;;;;;;;;21.97;59.48;98861.34;5043030;27;103527;-76
2022/07/30 06:53:44;;;;;;;;;;;;;;;21.95;59.01;98863.41;5032153;27;102964;-76
2022/07/30 06:56:12;;;;;;;;;;;;;;;21.87;58.69;98863.44;5030080;27;103021;-76
2022/07/30 06:58:50;;;;;;;;;;;;;;;22.18;58.55;98866.91;5032522;27;103177;-75
2022/07/30 07:01:38;;;;;;;;;;;;;;;22.20;57.95;98866.75;5032967;27;103152;-76
2022/07/30 07:04:06;;;;;;;;;;;;;;;22.40;57.30;98868.72;5026094;27;102732;-75
2022/07/30 07:06:35;;;;;;;;;;;;;;;22.62;58.36;98871.59;5028340;27;102898;-77
2022/07/30 07:09:03;;;;;;;;;;;;;;;22.24;57.28;98868.03;5031415;27;103194;-76
2022/07/30 07:11:39;;;;;;;;;;;;;;;22.46;58.35;98870.69;5031343;27;103137;-77
2022/07/30 07:14:09;;;;;;;;;;;;;;;22.63;57.09;98868.69;5030115;27;102793;-76
2022/07/30 07:16:38;;;;;;;;;;;;;;;22.83;56.45;98869.88;5029837;27;102619;-76
2022/07/30 07:19:32;;;;;;;;;;;;;;;22.99;56.51;98866.16;5035524;27;103350;-77
2022/07/30 07:22:20;;;;;;;;;;;;;;;23.01;56.11;98862.28;5032196;27;104924;-74
2022/07/30 07:24:47;;;;;;;;;;;;;;;23.12;57.23;98871.75;5031515;27;103975;-77
2022/07/30 07:27:20;;;;;;;;;;;;;;;23.23;56.40;98871.28;5035211;27;104179;-75
2022/07/30 07:29:51;;;;;;;;;;;;;;;23.42;54.92;98868.03;5031130;27;103547;-76
2022/07/30 07:32:36;;;;;;;;;;;;;;;23.01;53.76;98872.22;5033806;27;103012;-75
2022/07/30 07:35:05;;;;;;;;;;;;;;;23.02;55.29;98879.25;5037794;27;102939;-76
2022/07/30 07:37:35;;;;;;;;;;;;;;;23.44;53.84;98865.97;5026922;27;103465;-77
2022/07/30 07:40:06;;;;;;;;;;;;;;;23.68;55.78;98872.91;5043737;27;105379;-75
2022/07/30 07:42:38;;;;;;;;;;;;;;;24.01;53.52;98876.81;5033553;27;104875;-77
2022/07/30 07:45:08;;;;;;;;;;;;;;;23.86;53.83;98878.72;5037123;27;103035;-77
2022/07/30 07:47:51;;;;;;;;;;;;;;;23.98;52.96;98870.94;5044330;27;102774;-79
2022/07/30 07:50:39;;;;;;;;;;;;;;;24.22;52.25;98870.63;5034173;27;102944;-78
2022/07/30 07:53:13;;;;;;;;;;;;;;;24.74;51.50;98868.34;5041325;27;103558;-81
2022/07/30 07:55:41;;;;;;;;;;;;;;;24.21;51.69;98877.03;5038443;27;103498;-77
2022/07/30 07:58:12;;;;;;;;;;;;;;;24.34;50.74;98869.06;5039604;27;103757;-80
2022/07/30 08:00:44;;;;;;;;;;;;;;;24.18;50.14;98864.75;5034545;27;103890;-74
2022/07/30 08:03:14;;;;;;;;;;;;;;;24.06;50.27;98873.53;5025346;27;104167;-73
2022/07/30 08:05:41;;;;;;;;;;;;;;;24.52;49.50;98874.84;5032005;27;102918;-74
2022/07/30 08:08:47;;;;;;;;;;;;;;;24.62;49.20;98875.31;5035280;27;104450;-75
2022/07/30 08:11:45;;;;;;;;;;;;;;;24.56;49.79;98870.69;5033322;27;103149;-74
2022/07/30 08:14:51;;;;;;;;;;;;;;;24.55;47.88;98871.75;5035037;27;103050;-76
2022/07/30 08:17:39;;;;;;;;;;;;;;;25.49;47.94;98873.00;5031212;27;102704;-76
2022/07/30 08:20:14;;;;;;;;;;;;;;;25.85;45.75;98876.25;5031321;27;102907;-77
2022/07/30 08:22:42;;;;;;;;;;;;;;;25.40;46.88;98870.66;5043163;27;102946;-78
2022/07/30 08:25:10;;;;;;;;;;;;;;;25.76;46.79;98869.38;5032841;27;103094;-78
2022/07/30 08:27:48;;;;;;;;;;;;;;;26.36;45.40;98875.75;5038045;27;103030;-79
2022/07/30 08:30:16;;;;;;;;;;;;;;;26.88;45.78;98870.38;5032246;27;102891;-76
2022/07/30 08:32:44;;;;;;;;;;;;;;;27.00;44.74;98867.88;5033065;27;104412;-76
2022/07/30 08:35:13;;;;;;;;;;;;;;;26.86;44.52;98872.44;5038761;27;103405;-78
2022/07/30 08:37:41;;;;;;;;;;;;;;;27.25;45.21;98870.72;5034127;27;103556;-70
2022/07/30 08:40:10;;;;;;;;;;;;;;;26.41;45.52;98876.00;5028963;27;103884;-72
2022/07/30 08:42:49;;;;;;;;;;;;;;;27.56;43.35;98868.97;5029465;27;105534;-73
2022/07/30 08:45:17;;;;;;;;;;;;;;;27.77;42.96;98856.97;5046684;27;104105;-72
2022/07/30 08:47:49;;;;;;;;;;;;;;;26.96;42.48;98872.88;5029310;27;103024;-72
2022/07/30 08:50:23;;;;;;;;;;;;;;;26.62;43.78;98883.91;5030317;27;104049;-72
2022/07/30 08:53:09;;;;;;;;;;;;;;;26.79;42.99;98877.06;5030901;27;103236;-71
2022/07/30 08:55:37;;;;;;;;;;;;;;;27.70;42.39;98877.91;5027344;27;103916;-71
2022/07/30 08:58:15;;;;;;;;;;;;;;;27.14;41.38;98874.09;5032054;27;102874;-71
2022/07/30 09:00:44;;;;;;;;;;;;;;;27.83;40.39;98872.38;5036620;27;102745;-71
2022/07/30 09:03:12;;;;;;;;;;;;;;;27.48;42.46;98876.53;5019609;27;104287;-73
2022/07/30 09:05:41;;;;;;;;;;;;;;;28.52;39.04;98863.41;5028086;27;103138;-72
2022/07/30 09:08:09;;;;;;;;;;;;;;;28.92;39.84;98864.72;5029359;27;103140;-72
2022/07/30 09:10:37;;;;;;;;;;;;;;;29.33;38.42;98861.41;5029450;27;103676;-71
2022/07/30 09:13:26;;;;;;;;;;;;;;;27.86;40.18;98866.53;5023826;27;103379;-72
2022/07/30 09:15:57;;;;;;;;;;;;;;;26.91;40.53;98872.66;5027491;27;103033;-71
2022/07/30 09:18:27;;;;;;;;;;;;;;;27.21;41.71;98874.88;5047646;27;103900;-71
2022/07/30 09:20:58;;;;;;;;;;;;;;;28.04;38.62;98876.69;5026941;27;103973;-71
2022/07/30 09:23:26;;;;;;;;;;;;;;;27.51;41.17;98876.91;5039764;27;104973;-72
2022/07/30 09:25:59;;;;;;;;;;;;;;;27.78;40.21;98874.09;5027096;27;103254;-71
2022/07/30 09:29:15;;;;;;;;;;;;;;;28.46;40.30;98872.44;5021325;27;102781;-72
2022/07/30 09:32:02;;;;;;;;;;;;;;;29.71;37.73;98869.31;5033855;27;103930;-72
2022/07/30 09:34:49;;;;;;;;;;;;;;;28.50;39.28;98865.50;5026337;27;103573;-72
2022/07/30 09:37:36;;;;;;;;;;;;;;;26.61;41.85;98873.28;5030567;27;103003;-72
2022/07/30 09:40:30;;;;;;;;;;;;;;;27.28;42.98;98870.28;5023633;27;102855;-72
2022/07/30 09:43:31;;;;;;;;;;;;;;;28.25;39.08;98861.91;5022568;27;103131;-72
2022/07/30 09:46:11;;;;;;;;;;;;;;;29.52;38.51;98860.34;5037457;27;104908;-72
2022/07/30 09:48:39;;;;;;;;;;;;;;;29.93;39.00;98858.78;5044978;27;104934;-71
2022/07/30 09:51:07;;;;;;;;;;;;;;;27.65;38.31;98871.44;5024613;27;103067;-73
2022/07/30 09:53:57;;;;;;;;;;;;;;;26.16;40.34;98874.94;5035370;27;103871;-73
2022/07/30 09:56:29;;;;;;;;;;;;;;;26.38;40.10;98879.13;5043966;27;103983;-73
2022/07/30 09:58:58;;;;;;;;;;;;;;;27.82;38.66;98862.56;5038889;27;103282;-71
2022/07/30 10:01:27;;;;;;;;;;;;;;;29.00;37.43;98867.16;5027999;27;103713;-74
2022/07/30 10:04:50;;;;;;;;;;;;;;;28.51;37.72;98859.00;5045729;27;103105;-73
2022/07/30 10:07:19;;;;;;;;;;;;;;;28.83;38.02;98859.81;5039066;27;104185;-72
2022/07/30 10:09:59;;;;;;;;;;;;;;;29.29;36.70;98865.63;5034920;27;103083;-72
2022/07/30 10:12:28;;;;;;;;;;;;;;;28.26;37.61;98874.47;5030489;27;103214;-73
2022/07/30 10:15:00;;;;;;;;;;;;;;;29.25;36.67;98858.97;5020396;27;103330;-73
2022/07/30 10:17:33;;;;;;;;;;;;;;;28.74;37.75;98859.28;5029638;27;103914;-73
2022/07/30 10:20:19;;;;;;;;;;;;;;;29.99;36.99;98861.41;5034252;27;103012;-75
2022/07/30 10:23:07;;;;;;;;;;;;;;;30.17;36.47;98858.66;5031801;27;103014;-73
2022/07/30 10:25:37;;;;;;;;;;;;;;;29.91;35.29;98858.19;5030570;27;102857;-73
2022/07/30 10:28:42;;;;;;;;;;;;;;;29.57;35.53;98856.91;5027398;27;103774;-73
2022/07/30 10:31:10;;;;;;;;;;;;;;;29.29;35.54;98852.88;5027525;27;103048;-73
2022/07/30 10:34:01;;;;;;;;;;;;;;;29.61;36.01;98845.38;5031452;27;102626;-72
2022/07/30 10:36:29;;;;;;;;;;;;;;;29.86;35.18;98845.25;5033792;27;103113;-73
2022/07/30 10:38:57;;;;;;;;;;;;;;;29.20;37.10;98842.47;5031748;27;102960;-72
2022/07/30 10:41:34;;;;;;;;;;;;;;;28.89;37.28;98848.88;5043163;27;103561;-73
2022/07/30 10:44:38;;;;;;;;;;;;;;;29.30;36.66;98840.94;5033813;27;102931;-72
2022/07/30 10:47:07;;;;;;;;;;;;;;;30.24;35.83;98845.72;5025157;27;103012;-74
2022/07/30 10:49:37;;;;;;;;;;;;;;;29.95;35.81;98835.72;5033923;27;104486;-77
2022/07/30 10:52:08;;;;;;;;;;;;;;;30.32;36.19;98837.22;5034303;27;103156;-76
2022/07/30 10:54:37;;;;;;;;;;;;;;;29.52;35.26;98844.00;5027075;27;102919;-77
2022/07/30 10:57:11;;;;;;;;;;;;;;;29.05;37.26;98836.59;5034720;27;103892;-76
2022/07/30 11:00:08;;;;;;;;;;;;;;;29.88;36.45;98840.41;5039018;27;104092;-75
2022/07/30 11:02:36;;;;;;;;;;;;;;;30.92;35.42;98839.78;5043854;27;103157;-73
2022/07/30 11:05:23;;;;;;;;;;;;;;;30.93;34.56;98836.03;5035686;27;103530;-74
2022/07/30 11:08:34;;;;;;;;;;;;;;;30.57;35.46;98852.59;5029718;27;103057;-74
2022/07/30 11:11:04;;;;;;;;;;;;;;;30.63;35.29;98851.63;5021118;27;103199;-73
2022/07/30 11:13:56;;;;;;;;;;;;;;;31.08;34.08;98836.38;5041442;27;103685;-73
2022/07/30 11:16:24;;;;;;;;;;;;;;;30.86;35.04;98835.28;5033366;27;103024;-73
2022/07/30 11:19:03;;;;;;;;;;;;;;;30.60;34.79;98842.03;5033846;27;102961;-72
2022/07/30 11:22:15;;;;;;;;;;;;;;;30.73;34.10;98825.47;5030984;27;102845;-74
2022/07/30 11:24:44;;;;;;;;;;;;;;;28.02;36.95;98840.72;5028743;27;103018;-73
2022/07/30 11:27:33;;;;;;;;;;;;;;;27.67;37.14;98837.63;5035498;27;102901;-73
2022/07/30 11:30:06;;;;;;;;;;;;;;;29.07;36.39;98827.13;5029206;27;103207;-74
2022/07/30 11:32:35;;;;;;;;;;;;;;;28.96;35.90;98836.03;5027736;27;103810;-73
2022/07/30 11:35:14;;;;;;;;;;;;;;;30.50;34.21;98824.59;5029242;27;103721;-73
2022/07/30 11:37:58;;;;;;;;;;;;;;;29.12;34.58;98821.84;5035208;27;102545;-75
2022/07/30 11:40:30;;;;;;;;;;;;;;;30.44;33.93;98829.09;5029722;27;104315;-73
2022/07/30 11:43:15;;;;;;;;;;;;;;;30.06;34.12;98824.03;5030088;27;103180;-73
2022/07/30 11:45:45;;;;;;;;;;;;;;;29.61;35.06;98817.31;5028980;27;103101;-73
2022/07/30 11:48:13;;;;;;;;;;;;;;;29.51;33.59;98815.13;5035146;27;103139;-74
2022/07/30 11:50:42;;;;;;;;;;;;;;;30.40;32.56;98820.56;5031035;27;103956;-74
2022/07/30 11:53:11;;;;;;;;;;;;;;;30.08;32.83;98813.72;5027940;27;103564;-73
2022/07/30 11:55:40;;;;;;;;;;;;;;;28.99;33.70;98816.56;5025334;27;103403;-74
2022/07/30 11:58:22;;;;;;;;;;;;;;;29.93;33.90;98821.47;5033546;27;102943;-74
2022/07/30 12:00:51;;;;;;;;;;;;;;;29.17;34.59;98826.59;5030851;27;103875;-74
2022/07/30 12:03:21;;;;;;;;;;;;;;;30.78;32.44;98811.94;5028088;27;104384;-73
2022/07/30 12:05:49;;;;;;;;;;;;;;;30.91;32.51;98811.69;5028190;27;103049;-73
2022/07/30 12:08:20;;;;;;;;;;;;;;;29.54;34.37;98811.09;5036924;27;103040;-73
2022/07/30 12:11:03;;;;;;;;;;;;;;;29.49;33.83;98805.53;5024857;27;104324;-73
2022/07/30 12:13:32;;;;;;;;;;;;;;;30.18;34.63;98805.78;5028663;27;103199;-74
2022/07/30 12:16:16;;;;;;;;;;;;;;;30.03;33.61;98812.75;5020713;27;103138;-74
2022/07/30 12:18:44;;;;;;;;;;;;;;;29.33;33.69;98800.72;5027744;27;102657;-74
2022/07/30 12:21:14;;;;;;;;;;;;;;;29.89;33.09;98801.25;5035217;27;102866;-73
2022/07/30 12:23:43;;;;;;;;;;;;;;;29.96;33.51;98791.06;5029380;27;102986;-75
2022/07/30 12:26:20;;;;;;;;;;;;;;;30.27;32.79;98793.50;5031643;27;103193;-75
2022/07/30 12:28:47;;;;;;;;;;;;;;;29.44;33.56;98791.78;5027343;27;103927;-73
2022/07/30 12:31:17;;;;;;;;;;;;;;;29.48;33.55;98793.81;5033694;27;102972;-73
2022/07/30 12:33:45;;;;;;;;;;;;;;;30.21;33.24;98793.59;5030780;27;103140;-73
2022/07/30 12:36:23;;;;;;;;;;;;;;;30.82;32.33;98785.03;5034159;27;103789;-73
2022/07/30 12:38:53;;;;;;;;;;;;;;;31.26;32.24;98781.66;5034259;27;102590;-74
2022/07/30 12:41:21;;;;;;;;;;;;;;;31.12;32.65;98796.63;5032288;27;103428;-73
2022/07/30 12:43:50;;;;;;;;;;;;;;;29.54;34.21;98792.91;5034827;27;104158;-74
2022/07/30 12:46:19;;;;;;;;;;;;;;;29.52;34.85;98789.56;5030111;27;103483;-72
2022/07/30 12:48:55;;;;;;;;;;;;;;;29.79;33.74;98798.19;5029788;27;102962;-72
2022/07/30 12:51:25;;;;;;;;;;;;;;;30.60;32.90;98784.78;5042422;27;102798;-72
2022/07/30 12:53:54;;;;;;;;;;;;;;;30.73;32.32;98789.19;5040751;27;103706;-72
2022/07/30 12:56:22;;;;;;;;;;;;;;;30.21;32.16;98778.09;5040037;27;103999;-73
2022/07/30 12:58:50;;;;;;;;;;;;;;;30.52;33.47;98766.06;5032375;27;102836;-72
2022/07/30 13:01:20;;;;;;;;;;;;;;;31.11;32.81;98773.13;5027859;27;103772;-72
2022/07/30 13:03:48;;;;;;;;;;;;;;;31.75;31.24;98765.72;5033352;27;103210;-72
2022/07/30 13:06:17;;;;;;;;;;;;;;;31.31;31.46;98759.09;5012164;27;103635;-74
2022/07/30 13:08:48;;;;;;;;;;;;;;;31.48;31.64;98763.56;5034566;27;104003;-73
2022/07/30 13:11:17;;;;;;;;;;;;;;;31.65;31.81;98760.06;5031682;27;102947;-74